Time;durP1;ratioP1;P1;durP2;ratioP2;P2;SDS_P1;SDS_P2;PMS_P1;PMS_P2;Temp;Humidity;BMP_temperature;BMP_pressure;BME280_temperature;BME280_humidity;BME280_pressure;Samples;Min_cycle;Max_cycle;Signal;HPM_P1;HPM_P2
2023/01/25 00:00:19;;;;;;;34.03;14.52;;;;;;;6.18;100.00;97812.50;5028238;28;20064;-57
2023/01/25 00:02:47;;;;;;;41.42;19.05;;;;;;;6.22;100.00;97825.44;5026095;28;20077;-57
2023/01/25 00:05:16;;;;;;;41.20;18.17;;;;;;;6.26;100.00;97809.44;5029972;28;20080;-57
2023/01/25 00:07:44;;;;;;;37.95;16.23;;;;;;;6.25;100.00;97814.78;5025758;28;20467;-58
2023/01/25 00:10:13;;;;;;;42.88;17.60;;;;;;;6.49;100.00;97812.59;5028676;28;21388;-57
2023/01/25 00:12:42;;;;;;;44.22;22.75;;;;;;;5.93;100.00;97815.59;5028425;28;20073;-60
2023/01/25 00:15:11;;;;;;;40.22;16.95;;;;;;;6.51;100.00;97810.72;5024549;28;20092;-58
2023/01/25 00:17:39;;;;;;;36.28;17.85;;;;;;;6.63;100.00;97810.03;5030247;28;20100;-55
2023/01/25 00:20:09;;;;;;;35.75;17.13;;;;;;;6.71;100.00;97807.84;5033547;28;20084;-56
2023/01/25 00:22:37;;;;;;;38.83;17.63;;;;;;;6.50;100.00;97822.97;5025050;28;20076;-60
2023/01/25 00:25:06;;;;;;;38.42;18.10;;;;;;;6.96;100.00;97819.53;5032004;28;20084;-56
2023/01/25 00:27:35;;;;;;;40.83;17.67;;;;;;;6.87;100.00;97811.25;5032224;28;20085;-55
2023/01/25 00:30:06;;;;;;;34.97;16.95;;;;;;;6.54;100.00;97821.88;5033592;28;20658;-63
2023/01/25 00:32:42;;;;;;;41.05;18.75;;;;;;;6.20;100.00;97817.66;5027992;28;20469;-52
2023/01/25 00:35:12;;;;;;;40.97;17.00;;;;;;;6.28;100.00;97818.09;5025461;28;20084;-53
2023/01/25 00:37:43;;;;;;;42.28;18.55;;;;;;;6.85;100.00;97810.50;5032633;28;20112;-58
2023/01/25 00:40:12;;;;;;;41.65;19.83;;;;;;;6.34;100.00;97817.75;5024239;28;20092;-55
2023/01/25 00:42:41;;;;;;;41.47;18.30;;;;;;;7.15;100.00;97812.25;5041436;28;20478;-60
2023/01/25 00:45:12;;;;;;;40.15;18.20;;;;;;;7.01;100.00;97807.81;5033379;28;20091;-55
2023/01/25 00:47:40;;;;;;;43.40;20.30;;;;;;;6.80;100.00;97812.53;5032842;28;20073;-61
2023/01/25 00:50:10;;;;;;;42.70;17.98;;;;;;;6.42;100.00;97805.06;5025267;28;20088;-56
2023/01/25 00:52:39;;;;;;;40.42;17.33;;;;;;;6.58;100.00;97798.97;5023548;28;20080;-54
2023/01/25 00:55:08;;;;;;;40.45;18.58;;;;;;;6.12;100.00;97810.22;5033070;28;20089;-58
2023/01/25 00:57:37;;;;;;;41.30;18.27;;;;;;;6.24;100.00;97808.72;5029840;28;20092;-55
2023/01/25 01:00:07;;;;;;;37.95;16.63;;;;;;;5.88;100.00;97811.50;5022360;28;20096;-63
2023/01/25 01:02:36;;;;;;;41.20;19.08;;;;;;;6.50;100.00;97804.63;5019601;28;20080;-58
2023/01/25 01:05:05;;;;;;;36.83;18.00;;;;;;;6.38;100.00;97805.31;5028511;28;20073;-58
2023/01/25 01:07:34;;;;;;;37.97;18.35;;;;;;;6.53;100.00;97793.97;5036020;28;20095;-57
2023/01/25 01:10:02;;;;;;;38.70;17.63;;;;;;;6.15;100.00;97798.72;5024306;28;20104;-53
2023/01/25 01:12:31;;;;;;;39.50;18.48;;;;;;;6.43;100.00;97795.41;5020888;28;20085;-59
2023/01/25 01:14:59;;;;;;;32.63;16.13;;;;;;;6.40;100.00;97791.22;5033923;28;20697;-59
2023/01/25 01:17:27;;;;;;;38.17;17.83;;;;;;;6.39;100.00;97792.13;5036777;28;20098;-61
2023/01/25 01:19:57;;;;;;;41.75;21.05;;;;;;;5.94;100.00;97793.72;5030660;28;20085;-61
2023/01/25 01:22:25;;;;;;;40.90;18.47;;;;;;;6.34;100.00;97794.16;5031109;28;20092;-58
2023/01/25 01:24:53;;;;;;;39.97;20.83;;;;;;;5.75;100.00;97797.38;5031020;28;20652;-56
2023/01/25 01:27:22;;;;;;;36.25;17.25;;;;;;;6.46;100.00;97782.16;5028536;28;20092;-61
2023/01/25 01:29:50;;;;;;;38.30;18.30;;;;;;;6.32;100.00;97796.00;5027266;28;20553;-60
2023/01/25 01:32:18;;;;;;;35.88;17.35;;;;;;;6.20;100.00;97793.25;5028401;28;20087;-58
2023/01/25 01:34:47;;;;;;;40.55;18.65;;;;;;;5.81;100.00;97797.91;5028433;28;20077;-56
2023/01/25 01:37:16;;;;;;;36.70;19.30;;;;;;;6.00;100.00;97804.81;5028254;28;20073;-56
2023/01/25 01:39:44;;;;;;;37.45;17.25;;;;;;;5.50;100.00;97793.44;5031119;28;20077;-59
2023/01/25 01:42:13;;;;;;;37.97;17.88;;;;;;;5.83;100.00;97796.06;5026193;28;20084;-53
2023/01/25 01:44:46;;;;;;;33.15;17.73;;;;;;;5.16;100.00;97799.56;5021700;28;20620;-58
2023/01/25 01:47:18;;;;;;;36.10;18.70;;;;;;;5.42;100.00;97800.84;5022825;28;20084;-60
2023/01/25 01:49:51;;;;;;;32.67;14.93;;;;;;;5.43;100.00;97799.91;5027021;28;20084;-57
2023/01/25 01:52:24;;;;;;;39.65;18.13;;;;;;;5.72;100.00;97791.41;5026956;28;20077;-54
2023/01/25 01:54:55;;;;;;;35.72;16.63;;;;;;;6.00;100.00;97789.94;5029333;28;20069;-60
2023/01/25 01:57:25;;;;;;;34.53;16.98;;;;;;;5.98;100.00;97790.94;5031398;28;20115;-59
2023/01/25 01:59:56;;;;;;;38.97;19.67;;;;;;;5.88;100.00;97778.34;5030622;28;20085;-58
2023/01/25 02:02:26;;;;;;;38.15;19.05;;;;;;;5.75;100.00;97777.31;5026863;28;20081;-56
2023/01/25 02:04:59;;;;;;;35.47;15.98;;;;;;;5.85;100.00;97786.34;5027495;28;20077;-57
2023/01/25 02:07:31;;;;;;;34.42;15.77;;;;;;;6.26;100.00;97780.63;5018745;28;20096;-57
2023/01/25 02:10:03;;;;;;;36.38;16.55;;;;;;;5.77;100.00;97785.91;5033874;28;20092;-55
2023/01/25 02:12:32;;;;;;;35.22;15.90;;;;;;;6.21;100.00;97787.91;5029254;28;20087;-60
2023/01/25 02:15:00;;;;;;;35.95;17.05;;;;;;;6.26;100.00;97798.13;5028929;28;20095;-59
2023/01/25 02:17:30;;;;;;;37.30;17.73;;;;;;;5.77;100.00;97795.53;5024992;28;20482;-57
2023/01/25 02:20:01;;;;;;;35.88;16.00;;;;;;;6.14;100.00;97797.88;5023765;28;20552;-58
2023/01/25 02:22:31;;;;;;;;;;;;;;;5.70;100.00;97782.78;5028910;28;20077;-58
2023/01/25 02:25:05;;;;;;;32.65;15.13;;;;;;;5.85;100.00;97785.47;5031766;28;19959;-57
2023/01/25 02:27:37;;;;;;;33.45;15.80;;;;;;;5.50;100.00;97793.44;5028738;28;20561;-56
2023/01/25 02:30:07;;;;;;;36.55;18.63;;;;;;;5.39;100.00;97788.78;5033680;28;20088;-58
2023/01/25 02:32:35;;;;;;;36.43;17.70;;;;;;;5.79;100.00;97781.44;5026690;28;20080;-61
2023/01/25 02:35:04;;;;;;;35.97;16.15;;;;;;;5.82;100.00;97780.44;5026956;28;20081;-58
2023/01/25 02:37:33;;;;;;;35.33;16.85;;;;;;;5.91;100.00;97778.16;5026661;28;20088;-55
2023/01/25 02:40:04;;;;;;;33.90;17.55;;;;;;;6.07;100.00;97780.81;5032989;28;20084;-53
2023/01/25 02:42:34;;;;;;;33.63;17.40;;;;;;;6.57;100.00;97778.91;5023885;28;20471;-62
2023/01/25 02:45:03;;;;;;;40.38;17.65;;;;;;;6.30;100.00;97774.31;5032347;28;20077;-56
2023/01/25 02:47:31;;;;;;;34.05;16.75;;;;;;;6.15;100.00;97781.22;5026018;28;20518;-57
2023/01/25 02:49:59;;;;;;;39.03;18.75;;;;;;;5.77;100.00;97787.69;5029286;28;20073;-61
2023/01/25 02:52:27;;;;;;;36.17;18.27;;;;;;;6.31;100.00;97780.41;5021387;28;20080;-61
2023/01/25 02:54:56;;;;;;;38.42;17.75;;;;;;;6.39;100.00;97772.94;5026199;28;20122;-59
2023/01/25 02:57:25;;;;;;;35.30;15.60;;;;;;;6.84;100.00;97769.47;5031991;28;20080;-60
2023/01/25 02:59:54;;;;;;;38.33;19.10;;;;;;;6.26;100.00;97778.00;5030337;28;20073;-59
2023/01/25 03:02:22;;;;;;;39.30;17.83;;;;;;;6.12;100.00;97775.31;5032297;28;20075;-57
2023/01/25 03:04:51;;;;;;;35.55;15.93;;;;;;;6.69;100.00;97767.75;5031648;28;20085;-60
2023/01/25 03:07:19;;;;;;;39.17;17.80;;;;;;;6.46;100.00;97761.19;5025506;28;20120;-55
2023/01/25 03:09:47;;;;;;;37.45;17.52;;;;;;;6.46;100.00;97770.81;5028140;28;20077;-53
2023/01/25 03:12:15;;;;;;;32.92;14.15;;;;;;;6.51;100.00;97760.94;5028070;28;20087;-58
2023/01/25 03:14:45;;;;;;;33.63;16.90;;;;;;;6.55;100.00;97765.91;5025059;28;20410;-58
2023/01/25 03:17:13;;;;;;;39.90;18.07;;;;;;;6.74;100.00;97767.47;5039320;28;20084;-55
2023/01/25 03:19:42;;;;;;;38.90;17.30;;;;;;;6.05;100.00;97774.81;5030282;28;20073;-56
2023/01/25 03:22:10;;;;;;;37.78;16.48;;;;;;;6.24;100.00;97761.56;5031312;28;20092;-53
2023/01/25 03:24:38;;;;;;;42.72;18.92;;;;;;;6.31;100.00;97759.44;5022423;28;20076;-52
2023/01/25 03:27:13;;;;;;;38.72;17.13;;;;;;;6.58;100.00;97763.13;5032593;28;20083;-55
2023/01/25 03:29:41;;;;;;;44.17;20.88;;;;;;;6.14;100.00;97755.97;5029292;28;20080;-59
2023/01/25 03:32:11;;;;;;;37.42;17.00;;;;;;;6.46;100.00;97757.72;5031319;28;20556;-58
2023/01/25 03:34:39;;;;;;;40.05;18.25;;;;;;;6.27;100.00;97755.31;5023216;28;20073;-60
2023/01/25 03:37:08;;;;;;;38.33;18.55;;;;;;;6.18;100.00;97751.41;5027527;28;20093;-60
2023/01/25 03:39:36;;;;;;;40.03;19.08;;;;;;;5.90;100.00;97755.53;5028871;28;20468;-57
2023/01/25 03:42:04;;;;;;;42.90;18.23;;;;;;;6.05;100.00;97750.41;5031902;28;20081;-55
2023/01/25 03:44:33;;;;;;;40.20;19.05;;;;;;;6.08;100.00;97758.94;5036913;28;20077;-58
2023/01/25 03:47:01;;;;;;;35.15;17.48;;;;;;;6.01;100.00;97760.19;5030004;28;20081;-53
2023/01/25 03:49:31;;;;;;;37.85;17.80;;;;;;;6.11;100.00;97755.31;5033378;28;20077;-57
2023/01/25 03:51:59;;;;;;;37.70;17.40;;;;;;;5.93;100.00;97755.38;5028285;28;20115;-55
2023/01/25 03:54:28;;;;;;;29.10;14.80;;;;;;;6.31;100.00;97755.03;5028532;28;20077;-52
2023/01/25 03:56:56;;;;;;;34.83;16.00;;;;;;;6.11;100.00;97750.06;5028458;28;20478;-57
2023/01/25 03:59:24;;;;;;;35.75;17.65;;;;;;;5.58;100.00;97754.66;5039483;28;20679;-54
2023/01/25 04:01:53;;;;;;;35.72;19.27;;;;;;;5.66;100.00;97757.69;5029430;28;20104;-59
2023/01/25 04:04:21;;;;;;;36.03;17.45;;;;;;;5.53;100.00;97758.44;5027785;28;20092;-58
2023/01/25 04:06:51;;;;;;;35.25;16.27;;;;;;;5.57;100.00;97755.56;5026276;28;20087;-52
2023/01/25 04:09:19;;;;;;;35.37;16.67;;;;;;;5.50;100.00;97755.97;5027627;28;20482;-58
2023/01/25 04:11:49;;;;;;;32.13;15.27;;;;;;;5.08;100.00;97744.22;5026169;28;20083;-55
2023/01/25 04:14:17;;;;;;;36.65;16.90;;;;;;;5.85;100.00;97736.63;5024814;28;20530;-59
2023/01/25 04:17:04;;;;;;;44.55;18.65;;;;;;;6.26;100.00;97736.09;5023932;28;20092;-54
2023/01/25 04:19:32;;;;;;;36.30;16.40;;;;;;;6.27;100.00;97729.13;5027817;28;20073;-54
2023/01/25 04:22:02;;;;;;;39.53;18.55;;;;;;;6.60;100.00;97723.69;5028509;28;20092;-60
2023/01/25 04:24:30;;;;;;;39.25;16.95;;;;;;;6.47;100.00;97720.09;5028465;28;20093;-56
2023/01/25 04:26:58;;;;;;;39.50;18.42;;;;;;;5.88;100.00;97732.97;5028975;28;20076;-61
2023/01/25 04:29:27;;;;;;;38.50;17.55;;;;;;;6.13;100.00;97727.28;5026898;28;20084;-55
2023/01/25 04:32:07;;;;;;;41.22;16.75;;;;;;;6.26;100.00;97720.38;5030919;28;20082;-60
2023/01/25 04:34:36;;;;;;;38.85;18.65;;;;;;;5.88;100.00;97717.25;5033498;28;20077;-57
2023/01/25 04:37:06;;;;;;;33.92;16.67;;;;;;;6.30;100.00;97715.84;5028054;28;20563;-61
2023/01/25 04:39:34;;;;;;;35.83;17.93;;;;;;;6.15;100.00;97709.69;5031929;28;20520;-55
2023/01/25 04:42:02;;;;;;;42.17;20.80;;;;;;;5.47;100.00;97717.72;5025523;28;20505;-59
2023/01/25 04:44:31;;;;;;;35.35;17.42;;;;;;;5.73;100.00;97718.94;5031016;28;20081;-57
2023/01/25 04:46:59;;;;;;;38.15;17.95;;;;;;;5.76;100.00;97715.34;5022987;28;20073;-56
2023/01/25 04:49:27;;;;;;;34.92;16.42;;;;;;;5.51;100.00;97714.03;5025684;28;20556;-58
2023/01/25 04:51:56;;;;;;;37.70;16.77;;;;;;;5.84;100.00;97713.97;5025801;28;20089;-56
2023/01/25 04:54:25;;;;;;;37.55;17.45;;;;;;;5.65;100.00;97710.69;5024707;28;20104;-58
2023/01/25 04:56:54;;;;;;;35.97;15.77;;;;;;;5.40;100.00;97713.75;5022070;28;20080;-58
2023/01/25 04:59:22;;;;;;;38.47;15.90;;;;;;;6.03;100.00;97710.38;5026752;28;20555;-55
2023/01/25 05:01:50;;;;;;;39.33;18.00;;;;;;;5.80;100.00;97709.84;5025280;28;20085;-59
2023/01/25 05:04:18;;;;;;;28.50;12.70;;;;;;;6.06;100.00;97708.44;5025124;28;20079;-60
2023/01/25 05:06:47;;;;;;;38.63;16.02;;;;;;;6.04;100.00;97704.22;5028170;28;20057;-58
2023/01/25 05:09:16;;;;;;;35.78;17.48;;;;;;;5.82;100.00;97709.75;5022928;28;20072;-57
2023/01/25 05:11:46;;;;;;;35.45;15.95;;;;;;;5.94;100.00;97696.00;5017075;28;20080;-60
2023/01/25 05:14:14;;;;;;;36.07;17.13;;;;;;;6.12;100.00;97694.97;5014123;28;20089;-53
2023/01/25 05:16:42;;;;;;;38.60;16.83;;;;;;;6.00;100.00;97700.06;5024736;28;20077;-55
2023/01/25 05:19:11;;;;;;;40.67;18.92;;;;;;;5.79;100.00;97697.69;5019369;28;20096;-55
2023/01/25 05:21:57;;;;;;;37.35;17.83;;;;;;;5.70;100.00;97703.41;5026580;28;20488;-55
2023/01/25 05:24:25;;;;;;;37.22;15.80;;;;;;;5.86;100.00;97693.78;5014027;28;20093;-57
2023/01/25 05:27:02;;;;;;;35.22;16.05;;;;;;;6.02;100.00;97698.19;5023463;28;20076;-51
2023/01/25 05:29:34;;;;;;;35.33;17.08;;;;;;;5.74;100.00;97701.47;5020338;28;20111;-59
2023/01/25 05:32:06;;;;;;;35.53;15.55;;;;;;;5.60;100.00;97702.22;5024552;28;20053;-57
2023/01/25 05:34:35;;;;;;;36.28;16.85;;;;;;;6.37;100.00;97690.97;5027747;28;20077;-54
2023/01/25 05:37:05;;;;;;;39.15;17.73;;;;;;;5.85;100.00;97693.88;5019221;28;20084;-59
2023/01/25 05:39:33;;;;;;;34.47;15.25;;;;;;;5.99;100.00;97699.22;5027257;28;20492;-57
2023/01/25 05:42:04;;;;;;;35.50;15.40;;;;;;;6.42;100.00;97686.31;5022852;28;20085;-53
2023/01/25 05:44:32;;;;;;;41.05;16.80;;;;;;;5.94;100.00;97688.16;5022489;28;20085;-57
2023/01/25 05:47:01;;;;;;;37.67;17.52;;;;;;;5.94;100.00;97690.78;5028509;28;20076;-58
2023/01/25 05:49:29;;;;;;;36.50;17.95;;;;;;;6.21;100.00;97685.75;5028246;28;20104;-60
2023/01/25 05:51:58;;;;;;;42.17;18.90;;;;;;;6.35;100.00;97675.34;5022796;28;20076;-52
2023/01/25 05:54:26;;;;;;;44.20;19.90;;;;;;;5.98;100.00;97673.97;5022311;28;20089;-52
2023/01/25 05:56:54;;;;;;;40.22;16.52;;;;;;;6.37;100.00;97678.72;5021945;28;20450;-51
2023/01/25 05:59:24;;;;;;;38.63;17.95;;;;;;;6.37;100.00;97678.72;5023187;28;20090;-55
2023/01/25 06:01:53;;;;;;;40.60;17.90;;;;;;;5.95;100.00;97676.75;5027572;28;20089;-59
2023/01/25 06:04:21;;;;;;;40.33;17.75;;;;;;;6.05;100.00;97674.47;5013557;28;20085;-62
2023/01/25 06:06:49;;;;;;;36.40;15.57;;;;;;;5.68;100.00;97673.88;5028291;28;20088;-56
2023/01/25 06:09:17;;;;;;;35.22;14.80;;;;;;;5.76;100.00;97674.28;5025084;28;20100;-58
2023/01/25 06:11:46;;;;;;;37.88;17.58;;;;;;;5.71;100.00;97676.31;5020472;28;20085;-57
2023/01/25 06:14:14;;;;;;;35.25;14.70;;;;;;;5.74;100.00;97677.91;5021600;28;20112;-53
2023/01/25 06:16:44;;;;;;;35.28;16.05;;;;;;;6.20;100.00;97675.38;5023556;28;20079;-58
2023/01/25 06:19:13;;;;;;;31.20;14.82;;;;;;;5.97;100.00;97669.66;5021937;28;20526;-54
2023/01/25 06:21:41;;;;;;;29.88;14.40;;;;;;;5.41;100.00;97682.31;5022669;28;20092;-58
2023/01/25 06:24:09;;;;;;;28.67;14.18;;;;;;;5.14;100.00;97670.69;5026434;28;20533;-59
2023/01/25 06:26:38;;;;;;;28.75;13.52;;;;;;;5.23;100.00;97673.66;5020620;28;20077;-52
2023/01/25 06:29:06;;;;;;;25.20;12.15;;;;;;;5.45;100.00;97662.88;5027051;28;20100;-54
2023/01/25 06:31:35;;;;;;;34.50;15.23;;;;;;;5.41;100.00;97660.53;5017583;28;20096;-52
2023/01/25 06:34:06;;;;;;;31.80;13.18;;;;;;;5.51;100.00;97661.72;5028637;28;20092;-58
2023/01/25 06:36:35;;;;;;;32.47;13.63;;;;;;;5.41;100.00;97656.13;5025149;28;20126;-57
2023/01/25 06:39:04;;;;;;;30.85;15.57;;;;;;;5.05;100.00;97655.47;5027139;28;20076;-61
2023/01/25 06:41:32;;;;;;;31.48;12.95;;;;;;;5.63;100.00;97649.72;5024956;28;20085;-55
2023/01/25 06:44:00;;;;;;;29.15;13.15;;;;;;;5.74;100.00;97649.13;5027690;28;20081;-58
2023/01/25 06:46:31;;;;;;;40.15;19.40;;;;;;;5.71;100.00;97640.53;5017455;28;20081;-53
2023/01/25 06:49:00;;;;;;;32.35;15.43;;;;;;;6.67;100.00;97638.53;5029247;28;20073;-58
2023/01/25 06:51:29;;;;;;;33.85;16.35;;;;;;;6.61;100.00;97639.75;5029959;28;20096;-58
2023/01/25 06:54:02;;;;;;;34.70;16.85;;;;;;;6.14;100.00;97642.53;5028545;28;20085;-54
2023/01/25 06:56:31;;;;;;;39.90;16.85;;;;;;;6.08;100.00;97646.31;5025297;28;20085;-55
2023/01/25 06:58:59;;;;;;;37.15;16.33;;;;;;;6.60;100.00;97645.06;5030719;28;20069;-57
2023/01/25 07:01:29;;;;;;;39.00;16.98;;;;;;;7.11;100.00;97643.72;5031013;28;20081;-58
2023/01/25 07:03:59;;;;;;;37.65;16.98;;;;;;;6.50;100.00;97643.94;5023293;28;20080;-55
2023/01/25 07:06:33;;;;;;;34.87;18.07;;;;;;;6.28;100.00;97644.34;5030382;28;20512;-57
2023/01/25 07:09:05;;;;;;;32.40;14.68;;;;;;;6.42;100.00;97634.75;5031752;28;20077;-58
2023/01/25 07:11:33;;;;;;;28.15;13.88;;;;;;;6.13;100.00;97639.06;5031136;28;20083;-60
2023/01/25 07:14:01;;;;;;;27.02;13.98;;;;;;;5.94;100.00;97638.41;5030664;28;20211;-58
2023/01/25 07:16:35;;;;;;;30.83;13.45;;;;;;;5.78;100.00;97635.81;5024743;28;20089;-56
2023/01/25 07:19:04;;;;;;;29.65;13.80;;;;;;;5.55;100.00;97637.06;5030974;28;20467;-61
2023/01/25 07:21:34;;;;;;;32.22;14.70;;;;;;;5.69;100.00;97637.16;5026583;28;20088;-53
2023/01/25 07:24:03;;;;;;;28.15;14.38;;;;;;;6.11;100.00;97629.59;5030047;28;20077;-54
2023/01/25 07:26:32;;;;;;;35.63;15.48;;;;;;;5.84;100.00;97634.59;5030221;28;20081;-59
2023/01/25 07:29:01;;;;;;;31.95;15.23;;;;;;;5.81;100.00;97637.38;5026295;28;20081;-57
2023/01/25 07:31:29;;;;;;;33.72;15.52;;;;;;;5.82;100.00;97629.47;5031329;28;20092;-58
2023/01/25 07:33:58;;;;;;;37.95;17.48;;;;;;;5.88;100.00;97633.47;5031061;28;20489;-57
2023/01/25 07:36:27;;;;;;;38.70;17.15;;;;;;;6.09;100.00;97637.56;5018196;28;20572;-53
2023/01/25 07:38:57;;;;;;;39.13;16.85;;;;;;;5.96;100.00;97640.97;5024289;28;20091;-57
2023/01/25 07:41:26;;;;;;;38.10;17.60;;;;;;;5.97;100.00;97638.25;5027186;28;20096;-63
2023/01/25 07:43:54;;;;;;;33.95;16.20;;;;;;;5.72;100.00;97636.13;5030986;28;20065;-56
2023/01/25 07:46:23;;;;;;;35.33;16.90;;;;;;;5.77;100.00;97644.56;5028930;28;20474;-58
2023/01/25 07:48:52;;;;;;;39.63;18.65;;;;;;;5.75;100.00;97643.81;5023459;28;20077;-60
2023/01/25 07:51:25;;;;;;;37.53;16.30;;;;;;;6.26;100.00;97649.66;5029553;28;20080;-59
2023/01/25 07:53:56;;;;;;;37.50;17.50;;;;;;;6.33;100.00;97645.78;5024266;28;20081;-54
2023/01/25 07:56:28;;;;;;;31.65;15.45;;;;;;;6.11;100.00;97640.06;5030693;28;20506;-57
2023/01/25 07:58:58;;;;;;;34.47;17.42;;;;;;;5.94;100.00;97635.78;5017088;28;20049;-58
2023/01/25 08:01:28;;;;;;;35.15;17.23;;;;;;;5.83;100.00;97646.00;5029748;28;20081;-58
2023/01/25 08:03:56;;;;;;;33.97;16.87;;;;;;;6.32;100.00;97633.59;5016609;28;20085;-55
2023/01/25 08:06:26;;;;;;;34.28;17.75;;;;;;;6.24;100.00;97638.44;5025950;28;20500;-59
2023/01/25 08:08:56;;;;;;;34.50;16.57;;;;;;;6.39;100.00;97632.28;5029527;28;20085;-53
2023/01/25 08:11:26;;;;;;;29.35;16.42;;;;;;;6.17;100.00;97631.88;5030286;28;20087;-57
2023/01/25 08:13:55;;;;;;;33.00;16.38;;;;;;;6.11;100.00;97635.69;5020177;28;20069;-55
2023/01/25 08:16:25;;;;;;;31.10;14.35;;;;;;;5.93;100.00;97634.13;5030605;28;20147;-57
2023/01/25 08:18:55;;;;;;;32.20;17.48;;;;;;;5.85;100.00;97638.88;5027752;28;20081;-56
2023/01/25 08:21:27;;;;;;;28.77;14.30;;;;;;;6.14;100.00;97637.28;5026806;28;20079;-56
2023/01/25 08:23:58;;;;;;;32.78;15.70;;;;;;;6.14;100.00;97630.25;5023163;28;20390;-57
2023/01/25 08:26:27;;;;;;;33.15;16.17;;;;;;;6.20;100.00;97639.56;5023218;28;20459;-59
2023/01/25 08:28:56;;;;;;;34.70;16.88;;;;;;;6.25;100.00;97639.28;5034415;28;20072;-56
2023/01/25 08:31:26;;;;;;;32.97;15.63;;;;;;;6.54;100.00;97635.81;5029358;28;20083;-61
2023/01/25 08:33:55;;;;;;;29.52;16.48;;;;;;;5.46;100.00;97634.94;5017473;28;20061;-55
2023/01/25 08:36:24;;;;;;;26.02;14.48;;;;;;;6.26;100.00;97636.56;5028847;28;20065;-57
2023/01/25 08:38:54;;;;;;;26.20;13.30;;;;;;;6.07;100.00;97633.34;5029770;28;20065;-59
2023/01/25 08:41:25;;;;;;;30.00;14.93;;;;;;;5.84;100.00;97631.97;5020794;28;20474;-57
2023/01/25 08:43:54;;;;;;;26.73;11.98;;;;;;;5.76;100.00;97624.56;5023726;28;20053;-59
2023/01/25 08:46:23;;;;;;;35.15;18.45;;;;;;;5.50;100.00;97636.47;5027362;28;20077;-58
2023/01/25 08:48:54;;;;;;;31.75;15.10;;;;;;;5.57;100.00;97629.97;5028228;28;20080;-61
2023/01/25 08:51:23;;;;;;;32.65;18.10;;;;;;;5.38;100.00;97626.69;5027344;28;20076;-57
2023/01/25 08:53:52;;;;;;;32.05;15.73;;;;;;;5.54;100.00;97624.94;5024348;28;20065;-58
2023/01/25 08:56:20;;;;;;;31.70;16.23;;;;;;;5.81;100.00;97617.28;5021008;28;20073;-57
2023/01/25 08:58:50;;;;;;;36.50;16.90;;;;;;;5.78;100.00;97624.47;5021725;28;20081;-57
2023/01/25 09:01:20;;;;;;;33.03;15.35;;;;;;;6.01;100.00;97607.50;5023680;28;20080;-55
2023/01/25 09:03:49;;;;;;;36.88;17.67;;;;;;;5.91;100.00;97600.13;5029334;28;20106;-60
2023/01/25 09:06:19;;;;;;;34.63;17.65;;;;;;;5.98;100.00;97612.91;5022796;28;20423;-58
2023/01/25 09:08:48;;;;;;;36.10;17.83;;;;;;;6.52;100.00;97605.38;5024941;28;20066;-57
2023/01/25 09:11:18;;;;;;;37.15;17.73;;;;;;;6.27;100.00;97601.59;5025443;28;20061;-56
2023/01/25 09:13:47;;;;;;;;;;;;;;;5.74;100.00;97599.41;5023540;28;20455;-55
2023/01/25 09:16:21;;;;;;;36.67;18.70;;;;;;;5.21;100.00;97611.91;5018713;28;19976;-57
2023/01/25 09:18:50;;;;;;;36.38;17.60;;;;;;;6.10;100.00;97606.97;5028091;28;20084;-53
2023/01/25 09:21:19;;;;;;;36.88;18.05;;;;;;;5.83;100.00;97599.72;5038276;28;20084;-54
2023/01/25 09:23:49;;;;;;;43.20;19.40;;;;;;;6.22;100.00;97606.25;5028438;28;20078;-57
2023/01/25 09:26:31;;;;;;;41.05;18.95;;;;;;;6.23;100.00;97596.59;5027201;28;20073;-58
2023/01/25 09:28:59;;;;;;;45.25;23.17;;;;;;;5.89;100.00;97598.53;5023976;28;20445;-57
2023/01/25 09:31:29;;;;;;;45.42;21.48;;;;;;;6.02;100.00;97601.31;5028364;28;20076;-58
2023/01/25 09:33:58;;;;;;;39.90;18.70;;;;;;;6.23;100.00;97607.09;5018425;28;20152;-56
2023/01/25 09:36:26;;;;;;;30.63;12.82;;;;;;;6.34;100.00;97597.69;5022706;28;20057;-55
2023/01/25 09:38:55;;;;;;;44.65;19.15;;;;;;;6.28;100.00;97599.81;5025799;28;20108;-55
2023/01/25 09:41:47;;;;;;;44.47;19.38;;;;;;;5.72;100.00;97596.88;5029493;28;20091;-59
2023/01/25 09:44:28;;;;;;;44.72;19.92;;;;;;;5.58;100.00;97607.28;5028183;28;20076;-61
2023/01/25 09:46:59;;;;;;;44.53;20.02;;;;;;;5.67;100.00;97607.59;5025071;28;20077;-56
2023/01/25 09:49:45;;;;;;;43.53;20.00;;;;;;;5.70;100.00;97604.81;5027687;28;20080;-59
2023/01/25 09:52:25;;;;;;;42.33;19.45;;;;;;;5.54;100.00;97609.22;5026610;28;20072;-52
2023/01/25 09:54:54;;;;;;;52.65;22.15;;;;;;;6.09;100.00;97600.03;5028386;28;20076;-56
2023/01/25 09:57:27;;;;;;;49.35;21.00;;;;;;;5.89;100.00;97599.38;5028607;28;20065;-55
2023/01/25 09:59:55;;;;;;;53.58;23.63;;;;;;;6.14;100.00;97588.38;5028374;28;20084;-61
2023/01/25 10:02:35;;;;;;;47.70;21.00;;;;;;;5.76;100.00;97587.91;5031502;28;20600;-55
2023/01/25 10:05:07;;;;;;;49.90;21.65;;;;;;;6.45;100.00;97577.88;5019318;28;20088;-58
2023/01/25 10:07:49;;;;;;;45.30;21.95;;;;;;;5.67;100.00;97586.66;5025042;28;20081;-58
2023/01/25 10:10:21;;;;;;;53.88;22.60;;;;;;;5.88;100.00;97576.75;5015989;28;20443;-56
2023/01/25 10:12:50;;;;;;;57.35;23.60;;;;;;;5.87;100.00;97572.44;5019049;28;20153;-54
2023/01/25 10:15:20;;;;;;;62.95;25.25;;;;;;;5.74;100.00;97581.91;5020771;28;20438;-53
2023/01/25 10:17:57;;;;;;;62.35;25.52;;;;;;;6.28;100.00;97569.22;5024435;28;20088;-58
2023/01/25 10:20:31;;;;;;;54.90;25.30;;;;;;;6.16;100.00;97572.56;5040155;28;20540;-56
2023/01/25 10:23:14;;;;;;;60.45;25.83;;;;;;;5.64;100.00;97573.78;5028184;28;20081;-60
2023/01/25 10:25:46;;;;;;;61.25;26.42;;;;;;;5.85;100.00;97569.09;5021067;28;20075;-56
2023/01/25 10:28:27;;;;;;;60.00;25.27;;;;;;;6.35;100.00;97564.47;5024671;28;20099;-57
2023/01/25 10:31:00;;;;;;;57.70;25.23;;;;;;;6.01;100.00;97561.19;5026699;28;20077;-58
2023/01/25 10:33:32;;;;;;;52.78;22.83;;;;;;;6.27;100.00;97557.06;5028292;28;20092;-59
2023/01/25 10:36:05;;;;;;;54.17;23.73;;;;;;;6.07;100.00;97560.84;5022460;28;20080;-60
2023/01/25 10:38:36;;;;;;;51.40;24.25;;;;;;;5.85;100.00;97548.13;5028237;28;20081;-58
2023/01/25 10:41:06;;;;;;;53.97;21.58;;;;;;;6.48;100.00;97546.25;5019256;28;20077;-59
2023/01/25 10:43:35;;;;;;;51.35;22.35;;;;;;;6.38;100.00;97546.78;5023629;28;20081;-60
2023/01/25 10:46:04;;;;;;;51.20;22.65;;;;;;;5.63;100.00;97550.28;5023515;28;20099;-60
2023/01/25 10:48:35;;;;;;;51.42;21.23;;;;;;;6.53;100.00;97531.91;5041514;28;20521;-58
2023/01/25 10:51:04;;;;;;;52.13;21.85;;;;;;;6.02;100.00;97535.84;5021813;28;20096;-61
2023/01/25 10:53:34;;;;;;;48.35;21.42;;;;;;;6.61;100.00;97528.84;5021040;28;20073;-57
2023/01/25 10:56:24;;;;;;;43.28;17.38;;;;;;;6.21;100.00;97528.59;5016231;28;20061;-57
2023/01/25 10:58:54;;;;;;;48.95;21.42;;;;;;;6.00;100.00;97525.47;5021555;28;20080;-57
2023/01/25 11:01:27;;;;;;;51.05;22.40;;;;;;;6.40;100.00;97513.47;5016767;28;20085;-55
2023/01/25 11:03:58;;;;;;;49.25;20.58;;;;;;;6.59;100.00;97510.56;5022058;28;20076;-59
2023/01/25 11:06:34;;;;;;;48.85;20.92;;;;;;;6.66;100.00;97500.56;5028005;28;20111;-55
2023/01/25 11:09:33;;;;;;;54.55;21.80;;;;;;;6.07;100.00;97508.47;5018379;28;20540;-57
2023/01/25 11:12:02;;;;;;;50.10;22.02;;;;;;;6.87;100.00;97499.22;5026020;28;20079;-57
2023/01/25 11:14:32;;;;;;;57.90;25.83;;;;;;;6.05;100.00;97504.25;5027664;28;20093;-56
2023/01/25 11:17:02;;;;;;;53.23;22.20;;;;;;;6.26;100.00;97496.88;5024324;28;20507;-59
2023/01/25 11:19:36;;;;;;;56.07;22.87;;;;;;;6.02;100.00;97497.44;5027410;28;20076;-60
2023/01/25 11:22:05;;;;;;;62.08;25.67;;;;;;;6.13;100.00;97487.16;5026513;28;20088;-57
2023/01/25 11:24:35;;;;;;;54.47;23.30;;;;;;;5.90;100.00;97487.66;5027693;28;20061;-56
2023/01/25 11:27:17;;;;;;;54.00;24.10;;;;;;;6.62;100.00;97472.84;5021864;28;20077;-58
2023/01/25 11:29:46;;;;;;;50.67;20.70;;;;;;;6.58;100.00;97471.38;5027813;28;20540;-53